sensor_id;sensor_type;location;lat;lon;timestamp;temperature;humidity
13123;DHT22;6627;50.920;12.050;2023-07-20T00:01:05;16.00;99.90
13123;DHT22;6627;50.920;12.050;2023-07-20T00:06:23;15.90;99.90
13123;DHT22;6627;50.920;12.050;2023-07-20T00:08:54;15.80;99.90
13123;DHT22;6627;50.920;12.050;2023-07-20T00:11:26;15.50;99.90
13123;DHT22;6627;50.920;12.050;2023-07-20T00:13:56;15.30;99.90
13123;DHT22;6627;50.920;12.050;2023-07-20T00:19:00;15.00;99.90
13123;DHT22;6627;50.920;12.050;2023-07-20T00:21:31;14.90;99.90
13123;DHT22;6627;50.920;12.050;2023-07-20T00:24:01;14.90;99.90
13123;DHT22;6627;50.920;12.050;2023-07-20T00:26:29;14.90;99.90
13123;DHT22;6627;50.920;12.050;2023-07-20T00:28:58;14.70;99.90
13123;DHT22;6627;50.920;12.050;2023-07-20T06:00:14;16.10;99.90
13123;DHT22;6627;50.920;12.050;2023-07-20T06:02:41;16.00;99.90
13123;DHT22;6627;50.920;12.050;2023-07-20T06:05:10;16.10;99.90
13123;DHT22;6627;50.920;12.050;2023-07-20T06:07:38;16.20;99.90
13123;DHT22;6627;50.920;12.050;2023-07-20T06:10:06;16.20;99.90
13123;DHT22;6627;50.920;12.050;2023-07-20T06:12:34;16.30;99.90
13123;DHT22;6627;50.920;12.050;2023-07-20T06:15:02;16.30;99.90
13123;DHT22;6627;50.920;12.050;2023-07-20T06:17:31;16.40;99.90
13123;DHT22;6627;50.920;12.050;2023-07-20T06:19:59;16.40;99.90
13123;DHT22;6627;50.920;12.050;2023-07-20T06:22:28;16.50;99.90
13123;DHT22;6627;50.920;12.050;2023-07-20T06:24:55;16.60;99.90
13123;DHT22;6627;50.920;12.050;2023-07-20T06:27:22;16.70;99.90
13123;DHT22;6627;50.920;12.050;2023-07-20T06:29:49;16.70;99.90
13123;DHT22;6627;50.920;12.050;2023-07-20T06:32:17;16.70;99.90
13123;DHT22;6627;50.920;12.050;2023-07-20T06:34:45;16.80;99.90
13123;DHT22;6627;50.920;12.050;2023-07-20T06:37:15;16.90;99.90
13123;DHT22;6627;50.920;12.050;2023-07-20T06:39:44;17.00;99.90
13123;DHT22;6627;50.920;12.050;2023-07-20T06:42:11;17.00;99.90
13123;DHT22;6627;50.920;12.050;2023-07-20T06:44:39;17.00;99.90
13123;DHT22;6627;50.920;12.050;2023-07-20T06:47:06;17.10;99.90
13123;DHT22;6627;50.920;12.050;2023-07-20T06:49:34;17.10;99.90
13123;DHT22;6627;50.920;12.050;2023-07-20T06:52:02;17.10;99.90
13123;DHT22;6627;50.920;12.050;2023-07-20T06:54:29;17.20;99.90
13123;DHT22;6627;50.920;12.050;2023-07-20T06:56:58;17.30;99.90
13123;DHT22;6627;50.920;12.050;2023-07-20T07:01:54;17.50;99.90
13123;DHT22;6627;50.920;12.050;2023-07-20T07:04:21;17.50;99.90
13123;DHT22;6627;50.920;12.050;2023-07-20T07:06:49;17.60;99.90
13123;DHT22;6627;50.920;12.050;2023-07-20T07:09:17;17.60;99.90
13123;DHT22;6627;50.920;12.050;2023-07-20T07:11:44;17.60;99.90
13123;DHT22;6627;50.920;12.050;2023-07-20T07:14:13;17.60;99.90
13123;DHT22;6627;50.920;12.050;2023-07-20T07:16:41;17.60;99.90
13123;DHT22;6627;50.920;12.050;2023-07-20T07:19:08;17.70;99.90
13123;DHT22;6627;50.920;12.050;2023-07-20T07:21:36;17.60;99.90
13123;DHT22;6627;50.920;12.050;2023-07-20T07:24:03;17.60;99.90
13123;DHT22;6627;50.920;12.050;2023-07-20T07:26:33;17.60;99.90
13123;DHT22;6627;50.920;12.050;2023-07-20T07:29:02;17.70;99.90
13123;DHT22;6627;50.920;12.050;2023-07-20T07:31:33;17.80;99.90
13123;DHT22;6627;50.920;12.050;2023-07-20T07:34:01;17.70;99.90
13123;DHT22;6627;50.920;12.050;2023-07-20T07:36:28;17.80;99.90
13123;DHT22;6627;50.920;12.050;2023-07-20T07:38:55;18.30;99.90
13123;DHT22;6627;50.920;12.050;2023-07-20T07:41:23;18.70;99.90
13123;DHT22;6627;50.920;12.050;2023-07-20T07:43:50;18.40;99.90
13123;DHT22;6627;50.920;12.050;2023-07-20T07:46:18;18.80;99.90
13123;DHT22;6627;50.920;12.050;2023-07-20T07:48:46;18.90;99.90
13123;DHT22;6627;50.920;12.050;2023-07-20T07:51:14;19.00;99.90
13123;DHT22;6627;50.920;12.050;2023-07-20T07:53:41;19.00;99.90
13123;DHT22;6627;50.920;12.050;2023-07-20T07:56:09;18.90;99.90
13123;DHT22;6627;50.920;12.050;2023-07-20T08:01:04;19.00;99.90
13123;DHT22;6627;50.920;12.050;2023-07-20T08:03:31;19.20;99.90
13123;DHT22;6627;50.920;12.050;2023-07-20T08:06:01;19.20;99.90
13123;DHT22;6627;50.920;12.050;2023-07-20T08:08:31;19.10;99.90
13123;DHT22;6627;50.920;12.050;2023-07-20T08:10:59;18.90;99.90
13123;DHT22;6627;50.920;12.050;2023-07-20T08:13:30;19.10;99.90
13123;DHT22;6627;50.920;12.050;2023-07-20T08:15:59;19.20;99.90
13123;DHT22;6627;50.920;12.050;2023-07-20T08:18:28;19.20;99.90
13123;DHT22;6627;50.920;12.050;2023-07-20T08:20:55;19.10;99.90
13123;DHT22;6627;50.920;12.050;2023-07-20T08:23:24;19.10;99.90
13123;DHT22;6627;50.920;12.050;2023-07-20T08:25:53;19.00;99.90
13123;DHT22;6627;50.920;12.050;2023-07-20T08:28:21;19.00;99.90
13123;DHT22;6627;50.920;12.050;2023-07-20T08:30:49;19.00;99.90
13123;DHT22;6627;50.920;12.050;2023-07-20T08:33:18;19.00;99.90
13123;DHT22;6627;50.920;12.050;2023-07-20T08:35:48;19.20;99.90
13123;DHT22;6627;50.920;12.050;2023-07-20T08:38:15;19.20;99.90
13123;DHT22;6627;50.920;12.050;2023-07-20T08:40:44;19.30;99.90
13123;DHT22;6627;50.920;12.050;2023-07-20T08:43:14;19.30;99.90
13123;DHT22;6627;50.920;12.050;2023-07-20T08:45:45;19.40;99.90
13123;DHT22;6627;50.920;12.050;2023-07-20T08:48:14;19.50;99.90
13123;DHT22;6627;50.920;12.050;2023-07-20T08:50:44;19.60;99.90
13123;DHT22;6627;50.920;12.050;2023-07-20T08:53:13;19.80;99.90
13123;DHT22;6627;50.920;12.050;2023-07-20T08:55:44;20.30;99.90
13123;DHT22;6627;50.920;12.050;2023-07-20T08:58:13;20.80;99.90
13123;DHT22;6627;50.920;12.050;2023-07-20T09:00:43;20.90;99.90
13123;DHT22;6627;50.920;12.050;2023-07-20T09:03:12;20.70;99.90
13123;DHT22;6627;50.920;12.050;2023-07-20T09:05:41;20.50;99.90
13123;DHT22;6627;50.920;12.050;2023-07-20T09:08:08;20.20;99.90
13123;DHT22;6627;50.920;12.050;2023-07-20T09:10:35;20.00;99.90
13123;DHT22;6627;50.920;12.050;2023-07-20T09:13:04;19.90;99.90
13123;DHT22;6627;50.920;12.050;2023-07-20T09:15:31;19.30;99.90
13123;DHT22;6627;50.920;12.050;2023-07-20T09:18:01;19.30;99.90
13123;DHT22;6627;50.920;12.050;2023-07-20T09:20:32;19.20;99.90
13123;DHT22;6627;50.920;12.050;2023-07-20T09:23:00;19.10;99.90
13123;DHT22;6627;50.920;12.050;2023-07-20T09:25:31;19.00;99.90
13123;DHT22;6627;50.920;12.050;2023-07-20T09:28:03;18.80;99.90
13123;DHT22;6627;50.920;12.050;2023-07-20T09:30:31;18.70;99.90
13123;DHT22;6627;50.920;12.050;2023-07-20T09:32:59;18.70;99.90
13123;DHT22;6627;50.920;12.050;2023-07-20T09:35:27;18.90;99.90
13123;DHT22;6627;50.920;12.050;2023-07-20T09:37:59;19.00;99.90
13123;DHT22;6627;50.920;12.050;2023-07-20T09:40:28;19.20;99.90
13123;DHT22;6627;50.920;12.050;2023-07-20T09:42:55;19.40;99.90
13123;DHT22;6627;50.920;12.050;2023-07-20T09:45:29;19.40;99.90
13123;DHT22;6627;50.920;12.050;2023-07-20T09:48:03;19.60;99.90
13123;DHT22;6627;50.920;12.050;2023-07-20T09:50:32;19.70;99.90
13123;DHT22;6627;50.920;12.050;2023-07-20T09:53:00;19.50;99.90
13123;DHT22;6627;50.920;12.050;2023-07-20T09:55:29;19.40;99.90
13123;DHT22;6627;50.920;12.050;2023-07-20T09:57:56;19.50;99.90
13123;DHT22;6627;50.920;12.050;2023-07-20T10:00:24;19.30;99.90
13123;DHT22;6627;50.920;12.050;2023-07-20T10:02:55;19.00;99.90
13123;DHT22;6627;50.920;12.050;2023-07-20T10:05:28;19.00;99.90
13123;DHT22;6627;50.920;12.050;2023-07-20T10:10:33;18.10;99.90
13123;DHT22;6627;50.920;12.050;2023-07-20T10:13:01;18.10;99.90
13123;DHT22;6627;50.920;12.050;2023-07-20T10:15:33;18.20;99.90
13123;DHT22;6627;50.920;12.050;2023-07-20T10:18:15;18.20;99.90
13123;DHT22;6627;50.920;12.050;2023-07-20T10:20:50;18.50;99.90
13123;DHT22;6627;50.920;12.050;2023-07-20T10:23:21;18.80;99.90
13123;DHT22;6627;50.920;12.050;2023-07-20T10:25:50;19.10;99.90
13123;DHT22;6627;50.920;12.050;2023-07-20T10:28:17;19.20;99.90
13123;DHT22;6627;50.920;12.050;2023-07-20T10:30:45;19.60;99.90
13123;DHT22;6627;50.920;12.050;2023-07-20T10:33:17;19.50;99.90
13123;DHT22;6627;50.920;12.050;2023-07-20T10:35:52;19.80;99.90
13123;DHT22;6627;50.920;12.050;2023-07-20T10:38:39;19.70;99.90
13123;DHT22;6627;50.920;12.050;2023-07-20T10:43:47;19.30;99.90
13123;DHT22;6627;50.920;12.050;2023-07-20T10:49:10;18.80;99.90
13123;DHT22;6627;50.920;12.050;2023-07-20T10:51:39;18.40;99.90
13123;DHT22;6627;50.920;12.050;2023-07-20T10:54:33;18.30;99.90
13123;DHT22;6627;50.920;12.050;2023-07-20T10:57:21;18.30;99.90
13123;DHT22;6627;50.920;12.050;2023-07-20T10:59:50;18.10;99.90
13123;DHT22;6627;50.920;12.050;2023-07-20T11:04:48;17.80;99.90
13123;DHT22;6627;50.920;12.050;2023-07-20T11:07:17;17.90;99.90
13123;DHT22;6627;50.920;12.050;2023-07-20T11:12:41;18.20;99.90
13123;DHT22;6627;50.920;12.050;2023-07-20T11:15:45;18.50;99.90
13123;DHT22;6627;50.920;12.050;2023-07-20T11:18:14;18.70;99.90
13123;DHT22;6627;50.920;12.050;2023-07-20T11:23:10;18.10;99.90
13123;DHT22;6627;50.920;12.050;2023-07-20T11:25:39;18.20;99.90
13123;DHT22;6627;50.920;12.050;2023-07-20T11:28:07;18.20;99.90
13123;DHT22;6627;50.920;12.050;2023-07-20T11:38:10;18.40;99.90
13123;DHT22;6627;50.920;12.050;2023-07-20T11:40:46;18.30;99.90
13123;DHT22;6627;50.920;12.050;2023-07-20T11:43:16;18.20;99.90
13123;DHT22;6627;50.920;12.050;2023-07-20T11:45:44;18.20;99.90
13123;DHT22;6627;50.920;12.050;2023-07-20T11:48:14;18.40;99.90
13123;DHT22;6627;50.920;12.050;2023-07-20T11:50:42;18.70;99.90
13123;DHT22;6627;50.920;12.050;2023-07-20T11:53:11;18.90;99.90
13123;DHT22;6627;50.920;12.050;2023-07-20T11:55:41;18.80;99.90
13123;DHT22;6627;50.920;12.050;2023-07-20T11:58:09;18.90;99.90
13123;DHT22;6627;50.920;12.050;2023-07-20T12:00:39;19.20;99.90
13123;DHT22;6627;50.920;12.050;2023-07-20T12:03:07;19.50;99.90
13123;DHT22;6627;50.920;12.050;2023-07-20T12:05:35;19.80;99.90
13123;DHT22;6627;50.920;12.050;2023-07-20T12:08:03;20.20;99.90
13123;DHT22;6627;50.920;12.050;2023-07-20T12:10:32;20.40;99.90
13123;DHT22;6627;50.920;12.050;2023-07-20T12:13:03;20.50;99.90
13123;DHT22;6627;50.920;12.050;2023-07-20T12:15:31;20.20;99.90
13123;DHT22;6627;50.920;12.050;2023-07-20T12:18:00;20.40;99.90
13123;DHT22;6627;50.920;12.050;2023-07-20T12:20:30;20.50;99.90
13123;DHT22;6627;50.920;12.050;2023-07-20T12:23:00;20.30;99.90
13123;DHT22;6627;50.920;12.050;2023-07-20T12:25:37;20.40;99.90
13123;DHT22;6627;50.920;12.050;2023-07-20T12:28:07;20.70;99.90
13123;DHT22;6627;50.920;12.050;2023-07-20T12:30:37;20.80;99.90
13123;DHT22;6627;50.920;12.050;2023-07-20T12:33:04;20.50;99.90
13123;DHT22;6627;50.920;12.050;2023-07-20T12:35:33;20.20;99.90
13123;DHT22;6627;50.920;12.050;2023-07-20T12:38:01;20.00;99.90
13123;DHT22;6627;50.920;12.050;2023-07-20T12:40:28;19.90;99.90
13123;DHT22;6627;50.920;12.050;2023-07-20T12:42:57;20.50;99.90
13123;DHT22;6627;50.920;12.050;2023-07-20T12:45:25;20.50;99.90
13123;DHT22;6627;50.920;12.050;2023-07-20T12:47:53;20.10;99.90
13123;DHT22;6627;50.920;12.050;2023-07-20T12:50:20;20.10;99.90
13123;DHT22;6627;50.920;12.050;2023-07-20T12:52:48;20.30;99.90
13123;DHT22;6627;50.920;12.050;2023-07-20T12:55:15;20.40;99.90
13123;DHT22;6627;50.920;12.050;2023-07-20T12:57:43;20.20;99.90
13123;DHT22;6627;50.920;12.050;2023-07-20T13:00:15;20.10;99.90
13123;DHT22;6627;50.920;12.050;2023-07-20T13:02:43;19.80;99.90
13123;DHT22;6627;50.920;12.050;2023-07-20T13:07:39;19.50;99.90
13123;DHT22;6627;50.920;12.050;2023-07-20T13:10:09;19.50;99.90
13123;DHT22;6627;50.920;12.050;2023-07-20T13:15:07;19.50;99.90
13123;DHT22;6627;50.920;12.050;2023-07-20T13:17:38;19.50;99.90
13123;DHT22;6627;50.920;12.050;2023-07-20T13:20:08;19.70;99.90
13123;DHT22;6627;50.920;12.050;2023-07-20T13:22:38;19.70;99.90
13123;DHT22;6627;50.920;12.050;2023-07-20T13:25:06;19.70;99.90
13123;DHT22;6627;50.920;12.050;2023-07-20T13:27:35;19.80;99.90
13123;DHT22;6627;50.920;12.050;2023-07-20T13:30:05;19.90;99.90
13123;DHT22;6627;50.920;12.050;2023-07-20T13:32:37;20.10;99.90
13123;DHT22;6627;50.920;12.050;2023-07-20T13:35:06;20.40;99.90
13123;DHT22;6627;50.920;12.050;2023-07-20T13:37:34;20.60;99.90
13123;DHT22;6627;50.920;12.050;2023-07-20T13:40:01;20.80;99.90
13123;DHT22;6627;50.920;12.050;2023-07-20T13:42:31;20.90;99.90
13123;DHT22;6627;50.920;12.050;2023-07-20T13:44:59;20.60;99.90
13123;DHT22;6627;50.920;12.050;2023-07-20T13:47:26;20.60;99.90
13123;DHT22;6627;50.920;12.050;2023-07-20T13:49:55;20.50;99.90
13123;DHT22;6627;50.920;12.050;2023-07-20T13:52:23;20.40;99.90
13123;DHT22;6627;50.920;12.050;2023-07-20T13:54:50;20.40;99.90
13123;DHT22;6627;50.920;12.050;2023-07-20T13:57:17;20.40;99.90
13123;DHT22;6627;50.920;12.050;2023-07-20T13:59:45;20.40;99.90
13123;DHT22;6627;50.920;12.050;2023-07-20T14:02:13;20.50;99.90
13123;DHT22;6627;50.920;12.050;2023-07-20T14:04:41;20.50;99.90
13123;DHT22;6627;50.920;12.050;2023-07-20T14:07:15;20.50;99.90
13123;DHT22;6627;50.920;12.050;2023-07-20T14:09:42;20.40;99.90
13123;DHT22;6627;50.920;12.050;2023-07-20T14:12:10;20.40;99.90
13123;DHT22;6627;50.920;12.050;2023-07-20T14:14:40;20.50;99.90
13123;DHT22;6627;50.920;12.050;2023-07-20T14:17:10;20.50;99.90
13123;DHT22;6627;50.920;12.050;2023-07-20T14:19:38;20.50;99.90
13123;DHT22;6627;50.920;12.050;2023-07-20T14:22:08;20.50;99.90
13123;DHT22;6627;50.920;12.050;2023-07-20T14:24:40;20.50;99.90
13123;DHT22;6627;50.920;12.050;2023-07-20T14:27:08;20.60;99.90
13123;DHT22;6627;50.920;12.050;2023-07-20T14:29:38;20.60;99.90
13123;DHT22;6627;50.920;12.050;2023-07-20T14:32:07;20.60;99.90
13123;DHT22;6627;50.920;12.050;2023-07-20T14:34:35;20.60;99.90
13123;DHT22;6627;50.920;12.050;2023-07-20T14:37:02;20.70;99.90
13123;DHT22;6627;50.920;12.050;2023-07-20T14:39:30;20.50;99.90
13123;DHT22;6627;50.920;12.050;2023-07-20T14:41:59;20.50;99.90
13123;DHT22;6627;50.920;12.050;2023-07-20T14:44:27;20.30;99.90
13123;DHT22;6627;50.920;12.050;2023-07-20T14:46:54;20.50;99.90
13123;DHT22;6627;50.920;12.050;2023-07-20T14:49:21;20.80;99.90
13123;DHT22;6627;50.920;12.050;2023-07-20T14:51:50;20.80;99.90
13123;DHT22;6627;50.920;12.050;2023-07-20T14:54:19;20.70;99.90
13123;DHT22;6627;50.920;12.050;2023-07-20T14:56:50;20.70;99.90
13123;DHT22;6627;50.920;12.050;2023-07-20T14:59:20;20.70;99.90
13123;DHT22;6627;50.920;12.050;2023-07-20T15:01:48;20.80;99.90
13123;DHT22;6627;50.920;12.050;2023-07-20T15:04:15;20.70;99.90
13123;DHT22;6627;50.920;12.050;2023-07-20T15:09:13;21.00;99.90
13123;DHT22;6627;50.920;12.050;2023-07-20T15:11:43;21.00;99.90
13123;DHT22;6627;50.920;12.050;2023-07-20T15:14:10;21.00;99.90
13123;DHT22;6627;50.920;12.050;2023-07-20T15:16:39;21.20;99.90
13123;DHT22;6627;50.920;12.050;2023-07-20T15:19:08;21.20;99.90
13123;DHT22;6627;50.920;12.050;2023-07-20T15:21:39;21.20;99.90
13123;DHT22;6627;50.920;12.050;2023-07-20T15:24:07;21.30;99.90
13123;DHT22;6627;50.920;12.050;2023-07-20T15:26:42;21.20;99.90
13123;DHT22;6627;50.920;12.050;2023-07-20T15:29:12;21.30;99.90
13123;DHT22;6627;50.920;12.050;2023-07-20T15:31:41;21.40;99.90
13123;DHT22;6627;50.920;12.050;2023-07-20T15:34:09;21.40;99.90
13123;DHT22;6627;50.920;12.050;2023-07-20T15:36:39;21.40;99.90
13123;DHT22;6627;50.920;12.050;2023-07-20T15:39:06;21.60;99.90
13123;DHT22;6627;50.920;12.050;2023-07-20T15:41:34;21.80;99.90
13123;DHT22;6627;50.920;12.050;2023-07-20T15:46:46;21.60;99.90
13123;DHT22;6627;50.920;12.050;2023-07-20T15:49:36;21.70;99.90
13123;DHT22;6627;50.920;12.050;2023-07-20T15:52:23;21.50;99.90
13123;DHT22;6627;50.920;12.050;2023-07-20T15:54:50;21.40;99.90
13123;DHT22;6627;50.920;12.050;2023-07-20T15:57:24;21.20;99.90
13123;DHT22;6627;50.920;12.050;2023-07-20T15:59:52;21.20;99.90
13123;DHT22;6627;50.920;12.050;2023-07-20T16:02:22;21.10;99.90
13123;DHT22;6627;50.920;12.050;2023-07-20T16:05:08;21.10;99.90
13123;DHT22;6627;50.920;12.050;2023-07-20T16:07:48;21.10;99.90
13123;DHT22;6627;50.920;12.050;2023-07-20T16:10:18;21.20;99.90
13123;DHT22;6627;50.920;12.050;2023-07-20T16:12:48;21.20;99.90
13123;DHT22;6627;50.920;12.050;2023-07-20T16:15:16;20.90;99.90
13123;DHT22;6627;50.920;12.050;2023-07-20T16:17:45;21.00;99.90
13123;DHT22;6627;50.920;12.050;2023-07-20T16:20:13;21.00;99.90
13123;DHT22;6627;50.920;12.050;2023-07-20T16:22:40;21.00;99.90
13123;DHT22;6627;50.920;12.050;2023-07-20T16:25:09;21.20;99.90
13123;DHT22;6627;50.920;12.050;2023-07-20T16:27:37;21.30;99.90
13123;DHT22;6627;50.920;12.050;2023-07-20T16:30:05;21.40;99.90
13123;DHT22;6627;50.920;12.050;2023-07-20T16:32:34;21.50;99.90
13123;DHT22;6627;50.920;12.050;2023-07-20T16:35:08;21.50;99.90
13123;DHT22;6627;50.920;12.050;2023-07-20T16:37:35;21.20;99.90
13123;DHT22;6627;50.920;12.050;2023-07-20T16:40:03;21.20;99.90
13123;DHT22;6627;50.920;12.050;2023-07-20T16:42:34;21.20;99.90
13123;DHT22;6627;50.920;12.050;2023-07-20T16:45:01;21.00;99.90
13123;DHT22;6627;50.920;12.050;2023-07-20T16:47:32;21.00;99.90
13123;DHT22;6627;50.920;12.050;2023-07-20T16:49:59;21.00;99.90
13123;DHT22;6627;50.920;12.050;2023-07-20T16:52:38;20.90;99.90
13123;DHT22;6627;50.920;12.050;2023-07-20T16:55:07;21.00;99.90
13123;DHT22;6627;50.920;12.050;2023-07-20T16:57:46;20.90;99.90
13123;DHT22;6627;50.920;12.050;2023-07-20T17:00:14;20.90;99.90
13123;DHT22;6627;50.920;12.050;2023-07-20T17:02:43;20.90;99.90
13123;DHT22;6627;50.920;12.050;2023-07-20T17:05:12;20.90;99.90
13123;DHT22;6627;50.920;12.050;2023-07-20T17:07:47;20.80;99.90
13123;DHT22;6627;50.920;12.050;2023-07-20T17:10:22;20.80;99.90
13123;DHT22;6627;50.920;12.050;2023-07-20T17:12:49;20.70;99.90
13123;DHT22;6627;50.920;12.050;2023-07-20T17:15:17;20.70;99.90
13123;DHT22;6627;50.920;12.050;2023-07-20T17:17:45;20.70;99.90
13123;DHT22;6627;50.920;12.050;2023-07-20T17:20:18;20.70;99.90
13123;DHT22;6627;50.920;12.050;2023-07-20T17:22:48;20.70;99.90
13123;DHT22;6627;50.920;12.050;2023-07-20T17:25:26;20.50;99.90
13123;DHT22;6627;50.920;12.050;2023-07-20T17:27:53;20.60;99.90
13123;DHT22;6627;50.920;12.050;2023-07-20T17:30:21;20.60;99.90
13123;DHT22;6627;50.920;12.050;2023-07-20T17:32:49;20.50;99.90
13123;DHT22;6627;50.920;12.050;2023-07-20T17:35:18;20.60;99.90
13123;DHT22;6627;50.920;12.050;2023-07-20T17:37:48;20.60;99.90
13123;DHT22;6627;50.920;12.050;2023-07-20T17:40:17;20.70;99.90
13123;DHT22;6627;50.920;12.050;2023-07-20T17:42:46;20.70;99.90
13123;DHT22;6627;50.920;12.050;2023-07-20T17:45:15;20.40;99.90
13123;DHT22;6627;50.920;12.050;2023-07-20T17:47:44;20.10;99.90
13123;DHT22;6627;50.920;12.050;2023-07-20T17:50:12;20.00;99.90
13123;DHT22;6627;50.920;12.050;2023-07-20T17:52:41;20.00;99.90
13123;DHT22;6627;50.920;12.050;2023-07-20T17:55:10;19.90;99.90
13123;DHT22;6627;50.920;12.050;2023-07-20T17:57:39;20.00;99.90
13123;DHT22;6627;50.920;12.050;2023-07-20T18:00:09;20.00;99.90
13123;DHT22;6627;50.920;12.050;2023-07-20T18:02:40;20.20;99.90
13123;DHT22;6627;50.920;12.050;2023-07-20T18:05:08;20.00;99.90
13123;DHT22;6627;50.920;12.050;2023-07-20T18:07:35;20.00;99.90
13123;DHT22;6627;50.920;12.050;2023-07-20T18:10:07;20.10;99.90
13123;DHT22;6627;50.920;12.050;2023-07-20T18:12:43;19.90;99.90
13123;DHT22;6627;50.920;12.050;2023-07-20T18:15:12;19.60;99.90
13123;DHT22;6627;50.920;12.050;2023-07-20T18:17:40;19.40;99.90
13123;DHT22;6627;50.920;12.050;2023-07-20T18:20:08;19.20;99.90
13123;DHT22;6627;50.920;12.050;2023-07-20T18:22:36;19.10;99.90
13123;DHT22;6627;50.920;12.050;2023-07-20T18:25:06;19.00;99.90
13123;DHT22;6627;50.920;12.050;2023-07-20T18:27:34;18.90;99.90
13123;DHT22;6627;50.920;12.050;2023-07-20T18:30:05;18.80;99.90
13123;DHT22;6627;50.920;12.050;2023-07-20T18:32:33;18.70;99.90
13123;DHT22;6627;50.920;12.050;2023-07-20T18:35:01;18.60;99.90
13123;DHT22;6627;50.920;12.050;2023-07-20T18:37:29;18.40;99.90
13123;DHT22;6627;50.920;12.050;2023-07-20T18:39:57;18.20;99.90
13123;DHT22;6627;50.920;12.050;2023-07-20T18:42:25;18.10;99.90
13123;DHT22;6627;50.920;12.050;2023-07-20T18:44:52;18.10;99.90
13123;DHT22;6627;50.920;12.050;2023-07-20T18:47:21;17.90;99.90
13123;DHT22;6627;50.920;12.050;2023-07-20T18:49:50;17.90;99.90
13123;DHT22;6627;50.920;12.050;2023-07-20T18:52:40;17.80;99.90
13123;DHT22;6627;50.920;12.050;2023-07-20T18:55:09;17.60;99.90
13123;DHT22;6627;50.920;12.050;2023-07-20T18:57:36;17.40;99.90
13123;DHT22;6627;50.920;12.050;2023-07-20T19:00:04;17.40;99.90
13123;DHT22;6627;50.920;12.050;2023-07-20T19:02:34;17.30;99.90
13123;DHT22;6627;50.920;12.050;2023-07-20T19:05:03;17.20;99.90
13123;DHT22;6627;50.920;12.050;2023-07-20T19:07:31;17.10;99.90
13123;DHT22;6627;50.920;12.050;2023-07-20T19:09:58;17.00;99.90
13123;DHT22;6627;50.920;12.050;2023-07-20T19:12:25;16.90;99.90
13123;DHT22;6627;50.920;12.050;2023-07-20T19:14:53;16.70;99.90
13123;DHT22;6627;50.920;12.050;2023-07-20T19:17:20;16.70;99.90
13123;DHT22;6627;50.920;12.050;2023-07-20T19:19:53;16.70;99.90
13123;DHT22;6627;50.920;12.050;2023-07-20T19:22:20;16.70;99.90
13123;DHT22;6627;50.920;12.050;2023-07-20T19:24:48;16.60;99.90
13123;DHT22;6627;50.920;12.050;2023-07-20T19:27:15;16.50;99.90
13123;DHT22;6627;50.920;12.050;2023-07-20T19:29:44;16.50;99.90
13123;DHT22;6627;50.920;12.050;2023-07-20T19:32:12;16.50;99.90
13123;DHT22;6627;50.920;12.050;2023-07-20T19:34:40;16.40;99.90
13123;DHT22;6627;50.920;12.050;2023-07-20T19:37:09;16.30;99.90
13123;DHT22;6627;50.920;12.050;2023-07-20T19:39:36;16.40;99.90
13123;DHT22;6627;50.920;12.050;2023-07-20T19:42:05;16.20;99.90
13123;DHT22;6627;50.920;12.050;2023-07-20T19:44:32;16.10;99.90
13123;DHT22;6627;50.920;12.050;2023-07-20T19:47:01;15.90;99.90
13123;DHT22;6627;50.920;12.050;2023-07-20T19:49:31;15.90;99.90
13123;DHT22;6627;50.920;12.050;2023-07-20T19:51:59;15.80;99.90
13123;DHT22;6627;50.920;12.050;2023-07-20T19:54:28;15.70;99.90
13123;DHT22;6627;50.920;12.050;2023-07-20T19:57:04;15.70;99.90
13123;DHT22;6627;50.920;12.050;2023-07-20T19:59:32;15.70;99.90
13123;DHT22;6627;50.920;12.050;2023-07-20T20:02:02;15.60;99.90
13123;DHT22;6627;50.920;12.050;2023-07-20T20:04:30;15.60;99.90
13123;DHT22;6627;50.920;12.050;2023-07-20T20:06:58;15.50;99.90
13123;DHT22;6627;50.920;12.050;2023-07-20T20:09:34;15.50;99.90
13123;DHT22;6627;50.920;12.050;2023-07-20T20:12:07;15.50;99.90
13123;DHT22;6627;50.920;12.050;2023-07-20T20:14:35;15.50;99.90
13123;DHT22;6627;50.920;12.050;2023-07-20T20:17:03;15.40;99.90
13123;DHT22;6627;50.920;12.050;2023-07-20T20:19:31;15.30;99.90
13123;DHT22;6627;50.920;12.050;2023-07-20T20:31:53;15.60;99.90
13123;DHT22;6627;50.920;12.050;2023-07-20T20:34:22;15.60;99.90
13123;DHT22;6627;50.920;12.050;2023-07-20T20:36:49;15.80;99.90
13123;DHT22;6627;50.920;12.050;2023-07-20T20:39:17;15.60;99.90
13123;DHT22;6627;50.920;12.050;2023-07-20T20:41:44;15.60;99.90
13123;DHT22;6627;50.920;12.050;2023-07-20T20:44:14;15.30;99.90
13123;DHT22;6627;50.920;12.050;2023-07-20T20:46:48;15.20;99.90
13123;DHT22;6627;50.920;12.050;2023-07-20T20:49:18;15.10;99.90
13123;DHT22;6627;50.920;12.050;2023-07-20T20:51:45;15.10;99.90
13123;DHT22;6627;50.920;12.050;2023-07-20T20:54:13;15.30;99.90
13123;DHT22;6627;50.920;12.050;2023-07-20T21:23:55;15.00;99.90
13123;DHT22;6627;50.920;12.050;2023-07-20T22:04:09;13.90;99.90
13123;DHT22;6627;50.920;12.050;2023-07-20T22:06:36;13.80;99.90
13123;DHT22;6627;50.920;12.050;2023-07-20T22:09:14;13.70;99.90
13123;DHT22;6627;50.920;12.050;2023-07-20T22:11:42;13.80;99.90
13123;DHT22;6627;50.920;12.050;2023-07-20T22:14:09;13.80;99.90
13123;DHT22;6627;50.920;12.050;2023-07-20T22:16:37;13.70;99.90
13123;DHT22;6627;50.920;12.050;2023-07-20T22:21:34;13.70;99.90
13123;DHT22;6627;50.920;12.050;2023-07-20T22:24:01;13.80;99.90
13123;DHT22;6627;50.920;12.050;2023-07-20T22:26:32;13.80;99.90
13123;DHT22;6627;50.920;12.050;2023-07-20T22:29:04;13.80;99.90
13123;DHT22;6627;50.920;12.050;2023-07-20T22:31:31;13.80;99.90
13123;DHT22;6627;50.920;12.050;2023-07-20T22:33:59;13.80;99.90
13123;DHT22;6627;50.920;12.050;2023-07-20T22:36:27;13.80;99.90
13123;DHT22;6627;50.920;12.050;2023-07-20T22:38:54;13.80;99.90
13123;DHT22;6627;50.920;12.050;2023-07-20T22:41:22;13.70;99.90
13123;DHT22;6627;50.920;12.050;2023-07-20T22:43:51;13.70;99.90
13123;DHT22;6627;50.920;12.050;2023-07-20T22:46:21;13.70;99.90
13123;DHT22;6627;50.920;12.050;2023-07-20T22:48:49;13.60;99.90
13123;DHT22;6627;50.920;12.050;2023-07-20T22:51:16;13.60;99.90
13123;DHT22;6627;50.920;12.050;2023-07-20T22:53:44;13.50;99.90
13123;DHT22;6627;50.920;12.050;2023-07-20T22:58:39;13.90;99.90
13123;DHT22;6627;50.920;12.050;2023-07-20T23:01:09;13.90;99.90
13123;DHT22;6627;50.920;12.050;2023-07-20T23:03:37;13.60;99.90
13123;DHT22;6627;50.920;12.050;2023-07-20T23:06:05;13.50;99.90
13123;DHT22;6627;50.920;12.050;2023-07-20T23:08:32;13.30;99.90
13123;DHT22;6627;50.920;12.050;2023-07-20T23:11:02;13.20;99.90
13123;DHT22;6627;50.920;12.050;2023-07-20T23:13:30;13.10;99.90
13123;DHT22;6627;50.920;12.050;2023-07-20T23:16:04;13.10;99.90